Pagrindinis puslapis
METAR-TAF:

METAR-TAF

Oro uostai :

Bahreino tarptautinis oro uostas

Bahreinas, Bahreinas

platuma: 26-16N, ilguma: 050-39E, Aukštis: 2 m

Dabartinis oras

Ataskaita buvo paskelbta 6 minutes, ne 15:30 UTC
Vėjas 17 kt iš Šiaurės Vakarų
Temperatūra 34°C
Drėgmė 50%
Slėgis 1004 hPa
Matomumas 10 km arba daugiau
nėra debesų žemiau 1500 m ir nėra kamuolinių lietaus debesų

METAR: OBBI 241530Z 32017KT CAVOK 34/22 Q1004 NOSIG

Laikas: 18:36 (15:36 UTC)

Prognozė

Ataskaita buvo paskelbta 4 valandos ir 36 minutes, ne 11:00 UTC
Prognozė galioja nuo 24 metu 12 UTC su 25 metu 18 UTC
Vėjas 15 kt iš Šiaurės/Šiaurės Vakarų
Matomumas: 8000 m
Laikinai
nuo 24 metu 12 UTC su 24 metu 15 UTC
Vėjas 17 kt iš Šiaurės/Šiaurės Vakarų su gūsio iki 27 kt
Tapsmas
nuo 25 metu 04 UTC su 25 metu 06 UTC
Vėjas 17 kt iš Šiaurės/Šiaurės Vakarų su gūsio iki 27 kt
Tikimybė 30% :
Laikinai
nuo 25 metu 12 UTC su 25 metu 18 UTC
Matomumas: 4000 m
dulkės

TAF: OBBI 241100Z 2412/2518 33015KT 8000 NSC TEMPO 2412/2415 33017G27KT BECMG 2504/2506 33017G27KT PROB30 TEMPO 2512/2518 4000 DU

Orai ataskaitas ir orų prognozės (METAR, TAF).

turimą stotys yra geltonos ir raudonos taškus žemėlapyje.

Perkelti pele per norėdami pamatyti stoties vardą.

Tada spustelėkite, norėdami matyti oro stebėjimo ir prognozės.

Norėdami pakeisti žemėlapį: spustelėkite ant žalios mygtukų su juodo kryžiaus žemyn,; žalią mygtuką su brūkšneliu, jei norite nutolinti; arba žalių rodyklių gretimoms žemėlapius.


METAR-TAF: